M I D A S
Marine Information and Data Acquisition System
Tripno 1366 of the Zeeleeuw from 2007-11-27 07:43:13 to 2007-11-27 16:04:24
Back to CruiseResearch ActivitiesStationsMapUnderway DataData graphs

EquipmentUnitsComments
TimeDGPSUTC
LatitudeDGPSDM.mWGS84
LongitudeDGPSDM.mWGS84
SpeedMeteo Stationm/sRelative wind speed
DirectionMeteo StationdegRelative wind direction
TemperatureMeteo Stationdeg CelciusAir temperature
PressureMeteo StationPaAtmospheric pressure
HumidityMeteo Station%Relative humidity
Missing or incorrect values are displayed as -999
Metereological data collected by the RV Zeeleeuw from 2007-11-27 06:57:14 to 2007-11-27 16:15:21
Time Latitude Longitude Speed Direction Temperature Pressure Humidity
2007-11-27 06:58 51°13.596 2°56.093 -999 -999 -999 -999 -999
2007-11-27 06:59 51°13.596 2°56.093 -999 -999 -999 -999 -999
2007-11-27 07:00 51°13.597 2°56.094 -999 -999 -999 -999 -999
2007-11-27 07:01 51°13.598 2°56.094 -999 -999 -999 -999 -999
2007-11-27 07:02 51°13.598 2°56.093 -999 -999 -999 -999 -999
2007-11-27 07:03 51°13.598 2°56.094 -999 -999 -999 -999 -999
2007-11-27 07:04 51°13.598 2°56.095 -999 -999 -999 -999 -999
2007-11-27 07:05 51°13.598 2°56.094 -999 -999 -999 -999 -999
2007-11-27 07:06 51°13.598 2°56.095 -999 -999 -999 -999 -999
2007-11-27 07:07 51°13.599 2°56.094 -999 -999 -999 -999 -999
2007-11-27 07:08 51°13.598 2°56.092 -999 -999 -999 -999 -999
2007-11-27 07:09 51°13.598 2°56.095 -999 -999 -999 -999 -999
2007-11-27 07:10 51°13.598 2°56.096 -999 -999 -999 -999 -999
2007-11-27 07:11 51°13.598 2°56.096 -999 -999 -999 -999 -999
2007-11-27 07:12 51°13.598 2°56.096 -999 -999 -999 -999 -999
2007-11-27 07:13 51°13.6 2°56.094 -999 -999 -999 -999 -999
2007-11-27 07:14 51°13.599 2°56.094 -999 -999 -999 -999 -999
2007-11-27 07:15 51°13.598 2°56.093 -999 -999 -999 -999 -999
2007-11-27 07:16 51°13.598 2°56.094 -999 -999 -999 -999 -999
2007-11-27 07:17 51°13.598 2°56.094 -999 -999 -999 -999 -999
2007-11-27 07:18 51°13.598 2°56.094 -999 -999 -999 -999 -999
2007-11-27 07:19 51°13.598 2°56.095 -999 -999 -999 -999 -999
2007-11-27 07:20 51°13.597 2°56.095 -999 -999 -999 -999 -999
2007-11-27 07:21 51°13.598 2°56.095 -999 -999 -999 -999 -999
2007-11-27 07:22 51°13.598 2°56.095 -999 -999 -999 -999 -999
2007-11-27 07:23 51°13.597 2°56.094 -999 -999 -999 -999 -999
2007-11-27 07:24 51°13.599 2°56.096 -999 -999 -999 -999 -999
2007-11-27 07:25 51°13.599 2°56.097 -999 -999 -999 -999 -999
2007-11-27 07:26 51°13.6 2°56.097 -999 -999 -999 -999 -999
2007-11-27 07:27 51°13.6 2°56.096 -999 -999 -999 -999 -999
2007-11-27 07:28 51°13.6 2°56.095 -999 -999 -999 -999 -999
2007-11-27 07:29 51°13.6 2°56.094 -999 -999 -999 -999 -999
2007-11-27 07:30 51°13.599 2°56.094 -999 -999 -999 -999 -999
2007-11-27 07:31 51°13.599 2°56.094 -999 -999 -999 -999 -999
2007-11-27 07:32 51°13.599 2°56.095 -999 -999 -999 -999 -999
2007-11-27 07:33 51°13.599 2°56.095 -999 -999 -999 -999 -999
2007-11-27 07:34 51°13.601 2°56.096 -999 -999 -999 -999 -999
2007-11-27 07:35 51°13.599 2°56.095 -999 -999 -999 -999 -999
2007-11-27 07:36 51°13.599 2°56.094 -999 -999 -999 -999 -999
2007-11-27 07:37 51°13.599 2°56.094 -999 -999 -999 -999 -999
2007-11-27 07:38 51°13.599 2°56.094 -999 -999 -999 -999 -999
2007-11-27 07:39 51°13.599 2°56.094 -999 -999 -999 -999 -999
2007-11-27 07:40 51°13.599 2°56.094 -999 -999 -999 -999 -999
2007-11-27 07:41 51°13.599 2°56.094 -999 -999 -999 -999 -999
2007-11-27 07:42 51°13.599 2°56.094 -999 -999 -999 -999 -999
2007-11-27 07:43 51°13.599 2°56.094 -999 -999 -999 -999 -999
2007-11-27 07:44 51°13.599 2°56.094 -999 -999 -999 -999 -999
2007-11-27 07:45 51°13.599 2°56.095 -999 -999 -999 -999 -999
2007-11-27 07:46 51°13.598 2°56.095 -999 -999 -999 -999 -999
2007-11-27 07:47 51°13.603 2°56.073 -999 -999 -999 -999 -999
2007-11-27 07:48 51°13.63 2°55.973 -999 -999 -999 -999 -999
2007-11-27 07:49 51°13.67 2°55.851 -999 -999 -999 -999 -999
2007-11-27 07:50 51°13.692 2°55.751 -999 -999 -999 -999 -999
2007-11-27 07:51 51°13.696 2°55.755 -999 -999 -999 -999 -999
2007-11-27 07:52 51°13.687 2°55.725 2.8 255 8.2 -999 77
2007-11-27 07:53 51°13.729 2°55.714 4.9 327 8.2 102970 77
2007-11-27 07:54 51°13.839 2°55.633 7.5 284 8.3 102970 78
2007-11-27 07:55 51°13.976 2°55.532 6.3 283 8.3 102970 78
2007-11-27 07:56 51°14.115 2°55.432 8.2 281 8.3 102970 79
2007-11-27 07:57 51°14.241 2°55.29 9.2 278 8.2 102970 80
2007-11-27 07:58 51°14.357 2°55.074 8.8 282 8.2 102980 80
2007-11-27 07:59 51°14.431 2°54.775 9.3 280 8.2 102970 81
2007-11-27 08:00 51°14.409 2°54.442 9.7 279 8.2 102970 81
2007-11-27 08:01 51°14.323 2°54.13 9.7 280 8.2 102970 81
2007-11-27 08:02 51°14.223 2°53.825 8.6 280 8.2 102970 80
2007-11-27 08:03 51°14.12 2°53.513 9.1 286 8.2 102970 81
2007-11-27 08:04 51°14.008 2°53.203 8.5 280 8.2 102970 81
2007-11-27 08:05 51°13.906 2°52.891 8.5 345 8.2 102970 81
2007-11-27 08:06 51°13.841 2°52.665 7 347 8.1 102980 81
2007-11-27 08:07 51°13.772 2°52.555 3.8 18 8.1 102970 80
2007-11-27 08:08 51°13.706 2°52.582 3 286 8.1 102980 81
2007-11-27 08:09 51°13.714 2°52.657 3.5 279 8.1 102980 81
2007-11-27 08:10 51°13.761 2°52.793 4.3 281 8.1 102980 81
2007-11-27 08:11 51°13.825 2°52.982 5.1 284 8.1 102970 81
2007-11-27 08:12 51°13.883 2°53.133 2.9 278 8.2 102980 81
2007-11-27 08:13 51°13.907 2°53.234 3.4 279 8.2 102980 81
2007-11-27 08:14 51°13.927 2°53.295 2.9 286 8.2 102980 81
2007-11-27 08:15 51°13.959 2°53.3 4.6 285 8.2 102990 81
2007-11-27 08:16 51°13.992 2°53.254 4.7 286 8.2 102970 81
2007-11-27 08:17 51°14.008 2°53.206 4.2 279 8.2 102980 81
2007-11-27 08:18 51°14.014 2°53.158 3.5 279 8.2 102980 82
2007-11-27 08:19 51°14.02 2°53.101 5.4 279 8.2 102980 82
2007-11-27 08:20 51°14.023 2°53.047 4.1 280 8.2 102990 82
2007-11-27 08:21 51°14.007 2°53.019 3.3 284 8.2 102980 82
2007-11-27 08:22 51°14.007 2°53.008 3.3 278 8.2 102980 82
2007-11-27 08:23 51°14.01 2°53.005 3.5 279 8.1 102980 82
2007-11-27 08:24 51°14.011 2°53.002 2.3 284 8.1 102990 82
2007-11-27 08:25 51°14.012 2°53 2.8 281 8.1 102980 81
2007-11-27 08:26 51°14.012 2°53.001 3.9 281 8.1 102990 81
2007-11-27 08:27 51°14.012 2°53 2.9 280 8.1 102980 81
2007-11-27 08:28 51°14.011 2°53.001 2.1 282 8.1 102980 81
2007-11-27 08:29 51°14.011 2°53.001 2.6 283 8.1 102990 81
2007-11-27 08:30 51°14.011 2°53.002 2.9 285 8.1 102980 81
2007-11-27 08:31 51°14.011 2°53.002 2.4 284 8.1 102980 81
2007-11-27 08:32 51°14.011 2°53.002 2.6 281 8.1 102990 81
2007-11-27 08:33 51°14.011 2°53.002 2.9 286 8.1 102990 81
2007-11-27 08:34 51°14.012 2°53.001 2.4 284 8.1 102980 81
2007-11-27 08:35 51°14.014 2°53 2.3 285 8.2 102990 81
2007-11-27 08:36 51°14.017 2°52.999 1.8 282 8.1 102980 81
2007-11-27 08:37 51°14.018 2°52.999 2.5 286 8.1 102980 81
2007-11-27 08:38 51°14.018 2°52.998 2.4 283 8.1 102990 81
2007-11-27 08:39 51°14.016 2°52.999 2.6 280 8.1 102990 81
2007-11-27 08:40 51°14.015 2°52.999 2 280 8.1 102980 82
2007-11-27 08:41 51°14.015 2°53 2.4 285 8.1 102980 82
2007-11-27 08:42 51°14.015 2°52.999 2.8 278 8.1 102980 82
2007-11-27 08:43 51°14.015 2°53 1.8 280 8.1 102990 82
2007-11-27 08:44 51°14.015 2°53 3.2 284 8.1 102990 82
2007-11-27 08:45 51°14.016 2°53 2.3 286 8.1 102980 82
2007-11-27 08:46 51°14.016 2°53 1.8 278 8.1 102990 82
2007-11-27 08:47 51°14.015 2°53 2.3 279 8.1 102980 82
2007-11-27 08:48 51°14.015 2°53 2.6 279 8.1 102990 82
2007-11-27 08:49 51°14.016 2°52.999 2 281 8.1 102980 82
2007-11-27 08:50 51°14.016 2°52.999 2.2 284 8.1 102980 82
2007-11-27 08:51 51°14.016 2°52.999 2.5 279 8.1 102980 82
2007-11-27 08:52 51°14.016 2°52.999 2.5 279 8.1 102980 82
2007-11-27 08:53 51°14.015 2°53 1.8 281 8.1 102980 82
2007-11-27 08:54 51°14.015 2°53 2 261 8.1 102980 82
2007-11-27 08:55 51°14.015 2°53 3.2 -999 8.1 102980 82
2007-11-27 08:56 51°14.015 2°53 2.3 260 8.1 102990 82
2007-11-27 08:57 51°14.016 2°52.999 2.9 260 8.1 102980 82
2007-11-27 08:58 51°14.016 2°53 3.8 281 8.1 102980 82
2007-11-27 08:59 51°14.015 2°53 2.6 263 8.1 102990 82
2007-11-27 09:00 51°14.015 2°53 2.1 261 8.1 102990 82
2007-11-27 09:01 51°14.015 2°53 3 260 8.1 102990 82
2007-11-27 09:02 51°14.015 2°53 2 261 8.1 102990 82
2007-11-27 09:03 51°14.016 2°53 3.2 260 8.1 102980 82
2007-11-27 09:04 51°14.015 2°53 2.8 259 8.1 102990 82
2007-11-27 09:05 51°14.015 2°53 2.8 260 8.1 102990 82
2007-11-27 09:06 51°14.016 2°52.999 4 260 8.1 102990 82
2007-11-27 09:07 51°14.017 2°53 2.7 -999 8.1 102980 81
2007-11-27 09:08 51°14.017 2°52.999 2.8 258 8.1 102980 81
2007-11-27 09:09 51°14.016 2°52.999 2.8 -999 8.1 102980 81
2007-11-27 09:10 51°14.017 2°52.999 2.4 261 8.1 102980 81
2007-11-27 09:11 51°14.017 2°52.999 2.6 -999 8.1 102980 81
2007-11-27 09:12 51°14.017 2°52.999 1.5 263 8.1 102980 81
2007-11-27 09:13 51°14.017 2°52.999 2.6 -999 8.1 102980 81
2007-11-27 09:14 51°14.017 2°52.999 1.6 264 8.1 102980 81
2007-11-27 09:15 51°14.016 2°52.999 2.4 261 8.1 102980 81
2007-11-27 09:16 51°14.016 2°53 2.9 283 8.2 102980 81
2007-11-27 09:17 51°14.015 2°52.999 2.9 261 8.2 102980 81
2007-11-27 09:18 51°14.016 2°53 2.4 279 8.2 102980 81
2007-11-27 09:19 51°14.016 2°53 2.1 262 8.2 102980 81
2007-11-27 09:20 51°14.017 2°53 2.3 286 8.2 102990 81
2007-11-27 09:21 51°14.017 2°52.999 1.8 264 8.2 102990 81
2007-11-27 09:22 51°14.018 2°53 1.9 264 8.2 102990 81
2007-11-27 09:23 51°14.019 2°53 2.2 267 8.2 102980 82
2007-11-27 09:24 51°14.019 2°52.999 1.8 263 8.2 102980 82
2007-11-27 09:25 51°14.019 2°52.999 1.8 -999 8.2 102990 82
2007-11-27 09:26 51°14.018 2°52.999 1.7 264 8.2 102980 82
2007-11-27 09:27 51°14.017 2°52.999 2.7 265 8.2 102980 82
2007-11-27 09:28 51°14.017 2°53 2.2 264 8.2 102980 82
2007-11-27 09:29 51°14.016 2°53 1.8 -999 8.2 102980 82
2007-11-27 09:30 51°14.016 2°53 1.9 261 8.2 102980 82
2007-11-27 09:31 51°14.017 2°53 1.6 -999 8.2 102980 82
2007-11-27 09:32 51°14.017 2°53 2.1 286 8.2 102980 83
2007-11-27 09:33 51°14.016 2°53 1.8 264 8.2 102980 83
2007-11-27 09:34 51°14.016 2°53 1.8 279 8.2 102980 83
2007-11-27 09:35 51°14.016 2°53.001 1.6 265 8.2 102980 83
2007-11-27 09:36 51°14.016 2°53 2.1 264 8.2 102980 83
2007-11-27 09:37 51°14.016 2°53.001 1.7 268 8.2 102980 83
2007-11-27 09:38 51°14.016 2°53.001 2.2 285 8.2 102980 83
2007-11-27 09:39 51°14.015 2°53.001 1.6 -999 8.2 102980 83
2007-11-27 09:40 51°14.014 2°53.001 1.8 269 8.2 102980 83
2007-11-27 09:41 51°14.014 2°53.001 1.9 282 8.2 102970 83
2007-11-27 09:42 51°14.015 2°53.001 1.6 266 8.2 102970 83
2007-11-27 09:43 51°14.016 2°53.001 2.1 283 8.2 102980 83
2007-11-27 09:44 51°14.017 2°53 2.1 268 8.2 102970 83
2007-11-27 09:45 51°14.017 2°53 2 279 8.2 102970 83
2007-11-27 09:46 51°14.017 2°53 2 266 8.2 102970 83
2007-11-27 09:47 51°14.017 2°53 2 -999 8.2 102970 83
2007-11-27 09:48 51°14.018 2°53 2.2 281 8.2 102970 83
2007-11-27 09:49 51°14.018 2°52.999 2.3 267 8.2 102970 83
2007-11-27 09:50 51°14.018 2°52.999 1.3 83 8.2 102970 83
2007-11-27 09:51 51°14.018 2°53 2.7 27 8.2 102970 83
2007-11-27 09:52 51°14.018 2°53 2.5 80 8.2 102970 83
2007-11-27 09:53 51°14.017 2°53 2.3 81 8.2 102960 83
2007-11-27 09:54 51°14.016 2°53 2.5 270 8.2 102970 83
2007-11-27 09:55 51°14.016 2°53 2.6 270 8.2 102970 83
2007-11-27 09:56 51°14.015 2°53 2.2 21 8.2 102970 83
2007-11-27 09:57 51°14.016 2°53 1.9 27 8.2 102980 84
2007-11-27 09:58 51°14.016 2°53.001 2.7 24 8.2 102970 84
2007-11-27 09:59 51°14.017 2°53 2.7 26 8.2 102970 84
2007-11-27 10:00 51°14.018 2°53 2.4 21 8.2 102980 83
2007-11-27 10:01 51°14.017 2°52.999 2.4 25 8.2 102980 84
2007-11-27 10:02 51°14.017 2°53 3.1 270 8.2 102990 84
2007-11-27 10:03 51°14.018 2°53 2.1 28 8.2 102970 84
2007-11-27 10:04 51°14.018 2°53 3.2 30 8.2 102980 84
2007-11-27 10:05 51°14.018 2°53 3 269 8.2 102980 84
2007-11-27 10:06 51°14.018 2°53 2.4 266 8.2 102980 84
2007-11-27 10:07 51°14.017 2°53 2.3 269 8.2 102980 84
2007-11-27 10:08 51°14.017 2°53 0.1 265 8.2 102980 84
2007-11-27 10:09 51°14.017 2°53 3.3 269 8.1 102980 84
2007-11-27 10:10 51°14.018 2°53 2.6 265 8.1 102980 84
2007-11-27 10:11 51°14.018 2°53 3 26 8.1 102970 84
2007-11-27 10:12 51°14.018 2°53 2.8 266 8.1 102980 84
2007-11-27 10:13 51°14.018 2°53 2.5 268 8.1 102970 84
2007-11-27 10:14 51°14.016 2°52.999 3.4 270 8.1 102980 84
2007-11-27 10:15 51°14.015 2°53.001 2.8 24 8.1 102980 84
2007-11-27 10:16 51°14.015 2°53.001 2.4 23 8.1 102980 84
2007-11-27 10:17 51°14.016 2°53.001 2.5 17 8.2 102980 84
2007-11-27 10:18 51°14.018 2°53 2.8 28 8.2 102980 84
2007-11-27 10:19 51°14.018 2°53 2.5 269 8.2 102970 84
2007-11-27 10:20 51°14.018 2°53 2.3 26 8.2 102980 84
2007-11-27 10:21 51°14.02 2°53.007 2 23 8.2 102980 84
2007-11-27 10:22 51°14.027 2°53.023 1.8 21 8.2 102970 84
2007-11-27 10:23 51°14.033 2°53.035 1.8 29 8.2 102970 84
2007-11-27 10:24 51°14.037 2°53.037 2.2 270 8.2 102970 84
2007-11-27 10:25 51°14.038 2°53.033 2.1 269 8.2 102970 84
2007-11-27 10:26 51°14.037 2°53.025 2.3 22 8.2 102970 84
2007-11-27 10:27 51°14.032 2°53.015 2.3 27 8.2 102970 84
2007-11-27 10:28 51°14.027 2°53.002 2.7 28 8.2 102970 84
2007-11-27 10:29 51°14.019 2°52.988 2.6 267 8.2 102970 85
2007-11-27 10:30 51°14.011 2°52.975 2.4 269 8.2 102960 84
2007-11-27 10:31 51°14.002 2°52.961 2.1 268 8.2 102970 84
2007-11-27 10:32 51°13.992 2°52.947 2.4 264 8.2 102960 84
2007-11-27 10:33 51°13.988 2°52.941 1.7 27 8.2 102960 85
2007-11-27 10:34 51°13.978 2°53.002 1.9 10 8.2 102960 85
2007-11-27 10:35 51°13.899 2°52.99 4.8 338 8.2 102950 84
2007-11-27 10:36 51°13.813 2°52.799 7.3 336 8.2 102950 84
2007-11-27 10:37 51°13.708 2°52.545 7.7 330 8.2 102930 84
2007-11-27 10:38 51°13.608 2°52.263 8 332 8.2 102940 84
2007-11-27 10:39 51°13.524 2°52.029 5.3 338 8.1 102950 84
2007-11-27 10:40 51°13.487 2°51.945 3.3 327 8.1 102940 84
2007-11-27 10:41 51°13.471 2°51.885 3.3 324 8.1 102950 84
2007-11-27 10:42 51°13.457 2°51.834 3.4 315 8.2 102950 84
2007-11-27 10:43 51°13.446 2°51.791 3.5 26 8.2 102950 84
2007-11-27 10:44 51°13.435 2°51.753 3.4 22 8.2 102950 84
2007-11-27 10:45 51°13.423 2°51.72 2.6 24 8.2 102950 84
2007-11-27 10:46 51°13.411 2°51.69 2.6 26 8.3 102950 84
2007-11-27 10:47 51°13.404 2°51.633 4.3 318 8.3 102950 84
2007-11-27 10:48 51°13.388 2°51.514 4.3 331 8.3 102950 84
2007-11-27 10:49 51°13.346 2°51.412 3.7 335 8.3 102950 84
2007-11-27 10:50 51°13.306 2°51.332 3.8 335 8.2 102950 84
2007-11-27 10:51 51°13.288 2°51.296 1.9 322 8.2 102940 84
2007-11-27 10:52 51°13.277 2°51.283 2.1 330 8.3 102940 85
2007-11-27 10:53 51°13.266 2°51.271 2 329 8.3 102950 85
2007-11-27 10:54 51°13.254 2°51.257 2.1 278 8.3 102950 85
2007-11-27 10:55 51°13.242 2°51.244 2.1 -999 8.3 102940 85
2007-11-27 10:56 51°13.206 2°51.153 6.2 279 8.3 102930 85
2007-11-27 10:57 51°13.113 2°50.875 9.1 281 8.2 102940 85
2007-11-27 10:58 51°13.017 2°50.551 8.3 284 8.2 102930 85
2007-11-27 10:59 51°12.92 2°50.227 8.9 281 8.1 102940 86
2007-11-27 11:00 51°12.818 2°49.906 8.6 -999 8.1 102930 86
2007-11-27 11:01 51°12.716 2°49.578 8.3 285 8 102930 87
2007-11-27 11:02 51°12.619 2°49.261 9.1 -999 8 102910 86
2007-11-27 11:03 51°12.517 2°48.935 7.8 285 8 102920 86
2007-11-27 11:04 51°12.425 2°48.615 8.6 280 8 102910 87
2007-11-27 11:05 51°12.325 2°48.297 8.7 280 8 102910 87
2007-11-27 11:06 51°12.228 2°47.968 9.1 -999 8 102910 88
2007-11-27 11:07 51°12.13 2°47.648 8.7 285 8 102910 88
2007-11-27 11:08 51°12.036 2°47.324 8.5 281 8 102910 88
2007-11-27 11:09 51°11.958 2°46.993 8.4 278 8 102900 88
2007-11-27 11:10 51°11.896 2°46.652 9 -999 7.9 102910 88
2007-11-27 11:11 51°11.808 2°46.325 8.5 280 7.9 102910 88
2007-11-27 11:12 51°11.725 2°45.995 8.6 281 7.9 102910 88
2007-11-27 11:13 51°11.64 2°45.667 8.7 -999 7.9 102910 88
2007-11-27 11:14 51°11.556 2°45.338 8.6 282 7.9 102910 88
2007-11-27 11:15 51°11.48 2°45.007 8.1 283 7.8 102910 88
2007-11-27 11:16 51°11.417 2°44.67 8.8 -999 7.8 102910 88
2007-11-27 11:17 51°11.371 2°44.326 7.6 281 7.8 102910 88
2007-11-27 11:18 51°11.323 2°43.985 8.8 285 7.8 102910 89
2007-11-27 11:19 51°11.274 2°43.641 7.5 -999 7.7 102910 89
2007-11-27 11:20 51°11.234 2°43.293 8.8 285 7.7 102910 89
2007-11-27 11:21 51°11.193 2°42.947 9.2 279 7.7 102900 89
2007-11-27 11:22 51°11.157 2°42.681 4.5 280 7.7 102920 90
2007-11-27 11:23 51°11.137 2°42.519 4.4 -999 7.8 102920 90
2007-11-27 11:24 51°11.126 2°42.378 4.7 279 7.7 102920 88
2007-11-27 11:25 51°11.109 2°42.244 4.7 -999 7.8 102920 88
2007-11-27 11:26 51°11.094 2°42.121 3.8 280 7.9 102910 88
2007-11-27 11:27 51°11.092 2°42.058 2.9 -999 7.9 102920 87
2007-11-27 11:28 51°11.086 2°42.052 2.6 281 7.9 102920 87
2007-11-27 11:29 51°11.079 2°42.047 2.3 279 7.9 102920 87
2007-11-27 11:30 51°11.074 2°42.044 3.2 279 7.9 102910 87
2007-11-27 11:31 51°11.068 2°42.03 4.1 279 7.9 102920 87
2007-11-27 11:32 51°11.012 2°41.91 7.3 285 7.8 102910 86
2007-11-27 11:33 51°10.897 2°41.67 9.5 281 7.7 102900 86
2007-11-27 11:34 51°10.774 2°41.419 8.5 -999 7.6 102910 86
2007-11-27 11:35 51°10.657 2°41.161 9.1 -999 7.5 102910 86
2007-11-27 11:36 51°10.529 2°40.916 8.8 283 7.5 102910 86
2007-11-27 11:37 51°10.402 2°40.672 9.2 -999 7.5 102910 86
2007-11-27 11:38 51°10.286 2°40.444 7.9 -999 7.5 102900 86
2007-11-27 11:39 51°10.195 2°40.279 6.1 278 7.5 102900 86
2007-11-27 11:40 51°10.135 2°40.186 4.6 -999 7.5 102900 87
2007-11-27 11:41 51°10.098 2°40.129 4.2 -999 7.5 102900 87
2007-11-27 11:42 51°10.084 2°40.083 2.9 284 7.6 102890 87
2007-11-27 11:43 51°10.08 2°40.071 3.3 280 7.6 102900 87
2007-11-27 11:44 51°10.079 2°40.066 2.3 281 7.7 102890 87
2007-11-27 11:45 51°10.083 2°40.046 4.2 285 7.9 102900 88
2007-11-27 11:46 51°10.083 2°39.857 7.3 278 7.9 102900 87
2007-11-27 11:47 51°10.085 2°39.55 8.6 280 7.9 102880 86
2007-11-27 11:48 51°10.092 2°39.235 7.8 284 7.9 102860 86
2007-11-27 11:49 51°10.099 2°38.918 8.5 -999 7.9 102870 86
2007-11-27 11:50 51°10.12 2°38.598 9.3 282 7.9 102880 86
2007-11-27 11:51 51°10.148 2°38.278 9.3 -999 7.8 102860 86
2007-11-27 11:52 51°10.174 2°37.961 9.2 280 7.9 102870 87
2007-11-27 11:53 51°10.204 2°37.645 7.8 284 7.9 102860 87
2007-11-27 11:54 51°10.257 2°37.34 8 281 7.9 102850 87
2007-11-27 11:55 51°10.361 2°37.073 7.7 284 7.9 102870 87
2007-11-27 11:56 51°10.502 2°36.868 6.2 284 7.9 102870 87
2007-11-27 11:57 51°10.676 2°36.742 4.8 -999 7.9 102870 87
2007-11-27 11:58 51°10.877 2°36.76 3.9 -999 8 102870 87
2007-11-27 11:59 51°11.081 2°36.784 4.9 285 8 102870 88
2007-11-27 12:00 51°11.286 2°36.803 4.2 -999 8 102870 88
2007-11-27 12:01 51°11.491 2°36.817 5.6 279 8 102860 88
2007-11-27 12:02 51°11.696 2°36.833 7 283 7.9 102870 85
2007-11-27 12:03 51°11.9 2°36.845 6 -999 7.7 102860 82
2007-11-27 12:04 51°12.102 2°36.858 7.3 -999 7.9 102860 78
2007-11-27 12:05 51°12.305 2°36.873 6.7 282 8.1 102860 75
2007-11-27 12:06 51°12.509 2°36.89 5.5 -999 8.2 102850 72
2007-11-27 12:07 51°12.708 2°36.908 7.4 281 8.3 102860 71
2007-11-27 12:08 51°12.906 2°36.924 6.9 -999 8.4 102850 70
2007-11-27 12:09 51°13.104 2°36.932 5.4 280 8.4 102840 68
2007-11-27 12:10 51°13.301 2°36.934 6.2 -999 8.5 102860 68
2007-11-27 12:11 51°13.497 2°36.943 7.3 285 8.4 102840 67
2007-11-27 12:12 51°13.7 2°36.954 6.7 -999 8.5 102850 67
2007-11-27 12:13 51°13.904 2°36.964 6.9 286 8.5 102830 66
2007-11-27 12:14 51°14.11 2°36.957 7 -999 8.5 102840 66
2007-11-27 12:15 51°14.311 2°36.944 5.9 279 8.5 102860 66
2007-11-27 12:16 51°14.512 2°36.933 5.9 285 8.6 102850 67
2007-11-27 12:17 51°14.714 2°36.923 5.8 -999 8.6 102850 67
2007-11-27 12:18 51°14.915 2°36.912 7.1 -999 8.6 102850 68
2007-11-27 12:19 51°15.119 2°36.905 6.1 285 8.6 102840 68
2007-11-27 12:20 51°15.323 2°36.894 7.1 -999 8.6 102850 68
2007-11-27 12:21 51°15.525 2°36.886 6.2 281 8.6 102850 68
2007-11-27 12:22 51°15.727 2°36.872 6.9 -999 8.6 102850 69
2007-11-27 12:23 51°15.931 2°36.856 7.6 282 8.6 102830 69
2007-11-27 12:24 51°16.138 2°36.834 7.2 -999 8.6 102830 69
2007-11-27 12:25 51°16.344 2°36.81 8 283 8.6 102820 69
2007-11-27 12:26 51°16.495 2°36.795 4.4 -999 8.6 102840 68
2007-11-27 12:27 51°16.571 2°36.793 4.2 285 8.6 102830 69
2007-11-27 12:28 51°16.614 2°36.798 3.9 -999 8.7 102840 69
2007-11-27 12:29 51°16.627 2°36.819 4.3 279 8.7 102840 69
2007-11-27 12:30 51°16.637 2°36.842 3.2 -999 8.8 102840 69
2007-11-27 12:31 51°16.645 2°36.868 3.4 285 8.8 102840 69
2007-11-27 12:32 51°16.658 2°36.894 2.1 -999 8.9 102830 69
2007-11-27 12:33 51°16.712 2°36.962 1.1 286 8.8 102840 69
2007-11-27 12:34 51°16.791 2°37.214 2.6 -999 8.8 102820 69
2007-11-27 12:35 51°16.842 2°37.555 3.4 279 8.8 102820 68
2007-11-27 12:36 51°16.891 2°37.913 3.1 287 8.8 102820 69
2007-11-27 12:37 51°16.944 2°38.267 2.6 284 8.7 102820 69
2007-11-27 12:38 51°16.992 2°38.624 2.7 283 8.7 102810 68
2007-11-27 12:39 51°17.032 2°38.991 3.4 280 8.6 102810 68
2007-11-27 12:40 51°17.074 2°39.36 3.7 284 8.6 102810 67
2007-11-27 12:41 51°17.119 2°39.727 3.2 -999 8.6 102820 67
2007-11-27 12:42 51°17.166 2°40.088 3.7 -999 8.6 102810 68
2007-11-27 12:43 51°17.212 2°40.452 3.6 278 8.6 102810 68
2007-11-27 12:44 51°17.261 2°40.812 3.6 -999 8.6 102820 69
2007-11-27 12:45 51°17.312 2°41.166 4.6 282 8.7 102810 70
2007-11-27 12:46 51°17.364 2°41.517 4 -999 8.7 102810 70
2007-11-27 12:47 51°17.415 2°41.871 4.2 279 8.6 102810 70
2007-11-27 12:48 51°17.468 2°42.228 4.4 -999 8.6 102810 70
2007-11-27 12:49 51°17.523 2°42.585 4.2 280 8.6 102820 70
2007-11-27 12:50 51°17.575 2°42.948 4.3 -999 8.6 102820 70
2007-11-27 12:51 51°17.622 2°43.317 4.6 284 8.5 102810 70
2007-11-27 12:52 51°17.668 2°43.685 4.7 -999 8.6 102820 70
2007-11-27 12:53 51°17.715 2°44.057 4 280 8.5 102810 70
2007-11-27 12:54 51°17.763 2°44.429 4.8 284 8.5 102820 71
2007-11-27 12:55 51°17.809 2°44.799 4.7 285 8.5 102800 71
2007-11-27 12:56 51°17.852 2°45.16 4.7 283 8.5 102790 72
2007-11-27 12:57 51°17.893 2°45.529 4.6 281 8.5 102800 73
2007-11-27 12:58 51°17.931 2°45.883 5.3 -999 8.5 102800 74
2007-11-27 12:59 51°17.968 2°46.249 4.6 280 8.5 102800 75
2007-11-27 13:00 51°18.006 2°46.597 5 280 8.5 102810 76
2007-11-27 13:01 51°18.043 2°46.961 5 285 8.4 102800 77
2007-11-27 13:02 51°18.084 2°47.325 5.4 282 8.4 102800 77
2007-11-27 13:03 51°18.129 2°47.69 4.9 284 8.4 102810 76
2007-11-27 13:04 51°18.174 2°48.055 5.1 285 8.4 102800 77
2007-11-27 13:05 51°18.217 2°48.422 4.4 285 8.4 102800 77
2007-11-27 13:06 51°18.264 2°48.79 4.7 279 8.4 102810 77
2007-11-27 13:07 51°18.31 2°49.158 5.2 286 8.4 102790 78
2007-11-27 13:08 51°18.355 2°49.526 5.1 283 8.4 102800 78
2007-11-27 13:09 51°18.402 2°49.892 4.7 284 8.4 102790 77
2007-11-27 13:10 51°18.449 2°50.253 4.8 281 8.3 102800 77
2007-11-27 13:11 51°18.491 2°50.579 2.6 286 8.3 102800 77
2007-11-27 13:12 51°18.495 2°50.813 2.4 353 8.3 102790 77
2007-11-27 13:13 51°18.509 2°50.968 0.9 26 8.3 102810 77
2007-11-27 13:14 51°18.528 2°51.063 1.7 32 8.3 102800 77
2007-11-27 13:15 51°18.544 2°51.103 2.1 33 8.3 102800 77
2007-11-27 13:16 51°18.56 2°51.141 1.8 28 8.3 102790 76
2007-11-27 13:17 51°18.574 2°51.181 2.2 -999 8.3 102790 76
2007-11-27 13:18 51°18.582 2°51.24 1.8 17 8.4 102790 77
2007-11-27 13:19 51°18.615 2°51.4 3.2 280 8.5 102780 77
2007-11-27 13:20 51°18.695 2°51.74 4.3 281 8.5 102790 76
2007-11-27 13:21 51°18.773 2°52.078 4.8 284 8.4 102790 76
2007-11-27 13:22 51°18.854 2°52.441 4.4 280 8.4 102800 75
2007-11-27 13:23 51°18.919 2°52.785 5.2 285 8.4 102790 75
2007-11-27 13:24 51°18.985 2°53.154 4.2 281 8.4 102790 76
2007-11-27 13:25 51°19.051 2°53.504 4.3 280 8.4 102790 76
2007-11-27 13:26 51°19.123 2°53.86 5 280 8.4 102790 75
2007-11-27 13:27 51°19.193 2°54.225 4 285 8.4 102780 75
2007-11-27 13:28 51°19.263 2°54.574 4.3 286 8.4 102780 75
2007-11-27 13:29 51°19.339 2°54.946 5 280 8.4 102780 76
2007-11-27 13:30 51°19.407 2°55.297 4.8 279 8.5 102780 79
2007-11-27 13:31 51°19.483 2°55.67 4.4 279 8.4 102780 81
2007-11-27 13:32 51°19.555 2°56.019 4.8 280 8.3 102780 83
2007-11-27 13:33 51°19.633 2°56.394 4.7 281 8.2 102780 84
2007-11-27 13:34 51°19.704 2°56.759 4.1 284 8.2 102770 85
2007-11-27 13:35 51°19.779 2°57.125 4.5 280 8.1 102790 85
2007-11-27 13:36 51°19.851 2°57.492 4.4 -999 8.1 102780 86
2007-11-27 13:37 51°19.923 2°57.848 4 281 8 102770 87
2007-11-27 13:38 51°20 2°58.231 4.1 281 8 102770 87
2007-11-27 13:39 51°20.073 2°58.588 4.3 348 8 102770 87
2007-11-27 13:40 51°20.15 2°58.969 3.7 348 8 102770 88
2007-11-27 13:41 51°20.223 2°59.325 4.7 281 8 102780 88
2007-11-27 13:42 51°20.301 2°59.709 4.3 350 8 102770 88
2007-11-27 13:43 51°20.377 3°0.081 4.1 280 8 102770 89
2007-11-27 13:44 51°20.452 3°0.456 4.3 346 8 102770 89
2007-11-27 13:45 51°20.531 3°0.83 4.2 280 8 102780 89
2007-11-27 13:46 51°20.602 3°1.2 4.2 352 8 102760 90
2007-11-27 13:47 51°20.678 3°1.581 4 348 8 102760 90
2007-11-27 13:48 51°20.753 3°1.96 4.4 281 8 102770 90
2007-11-27 13:49 51°20.832 3°2.34 4.1 280 8 102770 91
2007-11-27 13:50 51°20.911 3°2.721 4 281 8 102770 91
2007-11-27 13:51 51°20.99 3°3.099 4.3 345 8 102770 91
2007-11-27 13:52 51°21.069 3°3.487 4.5 283 8 102750 91
2007-11-27 13:53 51°21.146 3°3.869 4.1 -999 8 102760 91
2007-11-27 13:54 51°21.225 3°4.247 4 -999 7.9 102760 91
2007-11-27 13:55 51°21.303 3°4.622 3.9 339 7.9 102750 91
2007-11-27 13:56 51°21.406 3°4.98 3.3 -999 7.9 102740 91
2007-11-27 13:57 51°21.498 3°5.334 3.4 349 7.9 102740 91
2007-11-27 13:58 51°21.596 3°5.698 3 -999 7.9 102730 91
2007-11-27 13:59 51°21.691 3°6.081 4.3 280 7.9 102730 92
2007-11-27 14:00 51°21.745 3°6.457 3.7 -999 7.9 102730 91
2007-11-27 14:01 51°21.811 3°6.855 4.4 346 7.9 102730 90
2007-11-27 14:02 51°21.874 3°7.225 4.3 -999 7.8 102730 90
2007-11-27 14:03 51°21.939 3°7.624 4 279 7.9 102730 90
2007-11-27 14:04 51°21.998 3°8.009 4.8 -999 7.9 102740 89
2007-11-27 14:05 51°22.053 3°8.393 4.7 285 8 102730 89
2007-11-27 14:06 51°22.108 3°8.777 4.5 -999 8.1 102740 89
2007-11-27 14:07 51°22.163 3°9.156 4.7 281 8 102730 88
2007-11-27 14:08 51°22.219 3°9.546 4.2 -999 8 102730 88
2007-11-27 14:09 51°22.271 3°9.918 4.5 279 8 102740 87
2007-11-27 14:10 51°22.32 3°10.317 4.4 -999 7.9 102730 87
2007-11-27 14:11 51°22.364 3°10.694 4.4 281 7.9 102720 86
2007-11-27 14:12 51°22.399 3°11.082 4.7 -999 8 102720 86
2007-11-27 14:13 51°22.437 3°11.481 5 281 8 102720 86
2007-11-27 14:14 51°22.472 3°11.87 4.9 -999 8 102730 86
2007-11-27 14:15 51°22.503 3°12.243 4.1 356 8 102730 85
2007-11-27 14:16 51°22.531 3°12.586 3.9 -999 8 102710 85
2007-11-27 14:17 51°22.553 3°12.885 2.4 12 8 102730 85
2007-11-27 14:18 51°22.582 3°13.085 1.2 24 8 102740 85
2007-11-27 14:19 51°22.615 3°13.22 1.5 -999 8.1 102730 85
2007-11-27 14:20 51°22.614 3°13.276 2.5 79 8.2 102740 86
2007-11-27 14:21 51°22.615 3°13.329 2.9 80 8.3 102730 84
2007-11-27 14:22 51°22.618 3°13.385 3.4 81 8.3 102740 84
2007-11-27 14:23 51°22.643 3°13.465 1.7 279 8.2 102740 83
2007-11-27 14:24 51°22.693 3°13.475 5.2 281 8.2 102740 83
2007-11-27 14:25 51°22.68 3°13.419 5.8 279 8.2 102730 83
2007-11-27 14:26 51°22.641 3°13.279 10.1 285 8.2 102730 83
2007-11-27 14:27 51°22.596 3°13.027 9.9 279 8.2 102730 83
2007-11-27 14:28 51°22.551 3°12.764 10.2 286 8.2 102730 84
2007-11-27 14:29 51°22.505 3°12.505 9.5 279 8.2 102730 85
2007-11-27 14:30 51°22.46 3°12.233 9.1 283 8.2 102730 85
2007-11-27 14:31 51°22.416 3°11.965 9.1 282 8.1 102700 85
2007-11-27 14:32 51°22.372 3°11.703 10.8 285 8.1 102700 86
2007-11-27 14:33 51°22.339 3°11.425 10.4 280 8.1 102700 85
2007-11-27 14:34 51°22.309 3°11.249 6.1 281 8.1 102730 85
2007-11-27 14:35 51°22.287 3°11.226 4.2 281 8 102740 85
2007-11-27 14:36 51°22.285 3°11.235 4.6 280 8.1 102740 86
2007-11-27 14:37 51°22.287 3°11.259 3.7 285 8 102740 85
2007-11-27 14:38 51°22.289 3°11.288 4.4 285 8.1 102750 86
2007-11-27 14:39 51°22.247 3°11.192 9.2 280 8.1 102720 85
2007-11-27 14:40 51°22.2 3°10.95 9 280 8 102720 86
2007-11-27 14:41 51°22.144 3°10.693 11.1 -999 8 102720 85
2007-11-27 14:42 51°22.08 3°10.443 11 -999 8.1 102720 86
2007-11-27 14:43 51°22.011 3°10.197 10 282 8.1 102710 85
2007-11-27 14:44 51°21.944 3°9.949 11.1 -999 8 102720 85
2007-11-27 14:45 51°21.878 3°9.698 10.1 286 8 102720 86
2007-11-27 14:46 51°21.803 3°9.448 10.9 -999 8 102710 85
2007-11-27 14:47 51°21.72 3°9.197 9.6 279 8 102720 85
2007-11-27 14:48 51°21.639 3°8.943 11.3 -999 8 102720 86
2007-11-27 14:49 51°21.559 3°8.693 9.5 283 8 102720 85
2007-11-27 14:50 51°21.474 3°8.45 11.2 -999 8 102710 85
2007-11-27 14:51 51°21.38 3°8.215 10.7 284 8 102720 85
2007-11-27 14:52 51°21.277 3°7.988 10.4 -999 8 102710 85
2007-11-27 14:53 51°21.166 3°7.77 10.8 285 8.1 102710 86
2007-11-27 14:54 51°21.055 3°7.556 10.7 -999 8 102720 85
2007-11-27 14:55 51°20.947 3°7.337 9.7 281 8.1 102710 85
2007-11-27 14:56 51°20.834 3°7.123 9.7 -999 8 102720 84
2007-11-27 14:57 51°20.722 3°6.904 9.4 282 8 102710 84
2007-11-27 14:58 51°20.611 3°6.687 10.3 -999 8.1 102710 85
2007-11-27 14:59 51°20.499 3°6.472 10.5 278 8.1 102710 84
2007-11-27 15:00 51°20.389 3°6.253 10.1 281 8.1 102710 84
2007-11-27 15:01 51°20.279 3°6.031 10.1 281 8 102710 84
2007-11-27 15:02 51°20.179 3°5.797 9 278 8 102710 83
2007-11-27 15:03 51°20.08 3°5.561 9.2 282 8 102710 83
2007-11-27 15:04 51°19.98 3°5.329 10.1 285 8 102710 83
2007-11-27 15:05 51°19.877 3°5.101 11 280 8.1 102710 83
2007-11-27 15:06 51°19.777 3°4.86 9.5 282 8.1 102700 83
2007-11-27 15:07 51°19.673 3°4.619 11.1 280 8.1 102710 83
2007-11-27 15:08 51°19.571 3°4.376 9.6 280 8 102710 83
2007-11-27 15:09 51°19.468 3°4.137 11 -999 8 102710 83
2007-11-27 15:10 51°19.369 3°3.89 9.6 279 8.1 102710 83
2007-11-27 15:11 51°19.269 3°3.646 10.5 286 8 102710 82
2007-11-27 15:12 51°19.168 3°3.402 10 281 8 102710 82
2007-11-27 15:13 51°19.065 3°3.157 9.8 281 8 102700 82
2007-11-27 15:14 51°18.966 3°2.907 9.8 286 8 102710 82
2007-11-27 15:15 51°18.862 3°2.661 9.8 280 8 102710 82
2007-11-27 15:16 51°18.759 3°2.416 11.4 281 8 102710 81
2007-11-27 15:17 51°18.656 3°2.17 11.6 280 8 102710 81
2007-11-27 15:18 51°18.556 3°1.92 9.8 281 8 102710 81
2007-11-27 15:19 51°18.457 3°1.672 11.5 283 8 102700 81
2007-11-27 15:20 51°18.356 3°1.428 9.5 281 8 102710 80
2007-11-27 15:21 51°18.255 3°1.184 11.9 280 8 102700 80
2007-11-27 15:22 51°18.155 3°0.936 11.2 282 8 102700 79
2007-11-27 15:23 51°18.053 3°0.69 9.4 282 8 102700 80
2007-11-27 15:24 51°17.951 3°0.449 10.8 281 8 102710 79
2007-11-27 15:25 51°17.85 3°0.208 9 279 8 102700 79
2007-11-27 15:26 51°17.751 2°59.963 10.5 281 8 102710 79
2007-11-27 15:27 51°17.652 2°59.717 10.7 -999 7.9 102720 79
2007-11-27 15:28 51°17.567 2°59.457 10.8 281 7.9 102700 78
2007-11-27 15:29 51°17.483 2°59.197 8.6 280 7.9 102700 78
2007-11-27 15:30 51°17.4 2°58.938 9.5 287 7.9 102710 79
2007-11-27 15:31 51°17.324 2°58.673 10.4 -999 7.9 102710 79
2007-11-27 15:32 51°17.25 2°58.406 9.5 -999 7.9 102700 79
2007-11-27 15:33 51°17.185 2°58.13 11 279 7.9 102700 80
2007-11-27 15:34 51°17.116 2°57.855 10.3 -999 7.9 102700 80
2007-11-27 15:35 51°17.047 2°57.58 8.4 280 7.9 102700 80
2007-11-27 15:36 51°16.976 2°57.306 10.5 282 7.9 102700 81
2007-11-27 15:37 51°16.907 2°57.031 10.2 284 7.9 102700 81
2007-11-27 15:38 51°16.838 2°56.758 10.5 285 7.9 102700 81
2007-11-27 15:39 51°16.77 2°56.486 10.3 281 7.8 102700 82
2007-11-27 15:40 51°16.704 2°56.212 9.4 285 7.8 102700 82
2007-11-27 15:41 51°16.636 2°55.94 9.8 282 7.9 102700 83
2007-11-27 15:42 51°16.57 2°55.668 8.3 282 7.8 102700 83
2007-11-27 15:43 51°16.503 2°55.398 8.2 283 7.8 102690 83
2007-11-27 15:44 51°16.435 2°55.127 9.4 282 7.8 102710 84
2007-11-27 15:45 51°16.369 2°54.852 8.9 284 7.8 102700 84
2007-11-27 15:46 51°16.299 2°54.58 7.7 280 7.8 102700 85
2007-11-27 15:47 51°16.251 2°54.39 5.4 285 7.8 102720 85
2007-11-27 15:48 51°16.232 2°54.32 4.2 285 7.8 102730 86
2007-11-27 15:49 51°16.232 2°54.292 3.1 280 7.8 102730 86
2007-11-27 15:50 51°16.237 2°54.279 2.9 278 7.8 102740 86
2007-11-27 15:51 51°16.245 2°54.276 3.9 280 7.8 102730 86
2007-11-27 15:52 51°16.257 2°54.279 3.8 285 7.8 102730 86
2007-11-27 15:53 51°16.239 2°54.221 5.5 285 7.8 102740 86
2007-11-27 15:54 51°16.158 2°54.186 6.2 286 7.7 102730 86
2007-11-27 15:55 51°16.043 2°54.151 7.8 281 7.7 102740 86
2007-11-27 15:56 51°15.879 2°54.157 9 282 7.8 102730 87
2007-11-27 15:57 51°15.684 2°54.219 8.7 284 7.7 102730 86
2007-11-27 15:58 51°15.488 2°54.282 8.7 282 7.6 102730 86
2007-11-27 15:59 51°15.296 2°54.368 9.4 280 7.6 102740 86
2007-11-27 16:00 51°15.101 2°54.457 8.4 283 7.6 102730 85
2007-11-27 16:01 51°14.91 2°54.545 9.7 280 7.6 102730 84
2007-11-27 16:02 51°14.722 2°54.654 9.2 283 7.5 102730 81
2007-11-27 16:03 51°14.543 2°54.806 7.9 -999 7.5 102730 81
2007-11-27 16:04 51°14.39 2°55.025 8.5 -999 7.5 102730 80
2007-11-27 16:05 51°14.253 2°55.26 7.4 284 7.5 102740 79
2007-11-27 16:06 51°14.122 2°55.408 5.6 -999 7.6 102740 78
2007-11-27 16:07 51°14.024 2°55.479 3.7 285 7.6 102750 77
2007-11-27 16:08 51°13.936 2°55.544 4.5 286 7.5 102750 77
2007-11-27 16:09 51°13.838 2°55.62 5.1 285 7.5 102750 77
2007-11-27 16:10 51°13.746 2°55.735 4.4 280 7.4 102750 77
2007-11-27 16:11 51°13.677 2°55.862 3.4 346 7.4 102750 77
2007-11-27 16:12 51°13.634 2°55.962 2.8 279 7.3 102760 78
2007-11-27 16:13 51°13.608 2°56.052 1.6 350 7.2 102760 78
2007-11-27 16:14 51°13.601 2°56.088 1.1 18 7.2 102760 78
2007-11-27 16:15 51°13.596 2°56.096 1.5 21 7.1 102760 79